Potash Point, Vermont
Current Conditions -  °F | °C
As of 9:15 AM on Monday 26 Jan 2015 (Local Time) from K6B0 Reporting Station
Clear Clear  
Wind Chill: -9°   Ceiling: Unl
Heat Index:   Visibility: 10mi
Dew Point: -5°   Wind: 6mph
Humidity: 72%   Direction: 360°N
Pressure: 30.13"   Gusts: NA
Location:  44.0804°N, 73.3324°W
Report Text: K6B0 261415Z AUTO 36005KT 10SM CLR M16/M20 A3013 RMK AO2 T11651205
Loading
Personal Weather Stations






























Interactive Weather Map New forecast layout! Learn more

10-Day Weather Forecast

Advertisements
Track Severe Weather on mobile